createdAt,value
2019-04-22T00:00:09.875Z,1278
2019-04-22T00:01:12.133Z,1281
2019-04-22T00:02:14.393Z,1280
2019-04-22T00:03:16.756Z,1288
2019-04-22T00:04:19.137Z,1288
2019-04-22T00:05:21.334Z,1275
2019-04-22T00:06:23.500Z,1267
2019-04-22T00:07:25.893Z,1269
2019-04-22T00:08:28.059Z,1288
2019-04-22T00:09:30.343Z,1275
2019-04-22T00:10:32.596Z,1269
2019-04-22T00:11:34.883Z,1293
2019-04-22T00:12:37.204Z,1282
2019-04-22T00:13:39.559Z,1281
2019-04-22T00:14:41.860Z,1275
2019-04-22T00:15:43.988Z,1278
2019-04-22T00:16:46.316Z,1295
2019-04-22T00:17:48.504Z,1286
2019-04-22T00:18:50.798Z,1293
2019-04-22T00:19:53.136Z,1292
2019-04-22T00:20:55.332Z,1295
2019-04-22T00:21:57.611Z,1288
2019-04-22T00:22:59.885Z,1283
2019-04-22T00:24:02.157Z,1283
2019-04-22T00:25:04.445Z,1276
2019-04-22T00:26:07.032Z,1255
2019-04-22T00:27:09.079Z,1275
2019-04-22T00:28:11.272Z,1269
2019-04-22T00:29:13.661Z,1280
2019-04-22T00:30:15.984Z,1288
2019-04-22T00:31:18.109Z,1285
2019-04-22T00:32:20.489Z,1289
2019-04-22T00:33:22.614Z,1285
2019-04-22T00:34:24.907Z,1290
2019-04-22T00:35:27.162Z,1295
2019-04-22T00:36:29.442Z,1298
2019-04-22T00:37:31.700Z,1295
2019-04-22T00:38:34.002Z,1297
2019-04-22T00:39:36.385Z,1297
2019-04-22T00:40:38.510Z,1308
2019-04-22T00:41:40.909Z,1299
2019-04-22T00:42:43.082Z,1288
2019-04-22T00:43:45.340Z,1295
2019-04-22T00:44:47.625Z,1279
2019-04-22T00:45:49.950Z,1291
2019-04-22T00:46:52.159Z,1297
2019-04-22T00:47:54.451Z,1304
2019-04-22T00:48:56.691Z,1304
2019-04-22T00:49:58.987Z,1299
2019-04-22T00:51:01.268Z,1301
2019-04-22T00:52:07.480Z,1300
2019-04-22T00:53:05.784Z,1286
2019-04-22T00:54:08.075Z,1282
2019-04-22T00:55:10.375Z,1283
2019-04-22T00:56:12.690Z,1272
2019-04-22T00:57:14.983Z,1273
2019-04-22T00:58:17.249Z,1283
2019-04-22T00:59:19.504Z,1282
2019-04-22T01:00:21.769Z,1272
2019-04-22T01:01:24.051Z,1257
2019-04-22T01:02:26.325Z,1276
2019-04-22T01:03:28.612Z,1267
2019-04-22T01:04:30.862Z,1263
2019-04-22T01:05:33.157Z,1269
2019-04-22T01:06:35.488Z,1269
2019-04-22T01:07:37.715Z,1258
2019-04-22T01:08:40.069Z,1261
2019-04-22T01:09:42.325Z,1258
2019-04-22T01:10:44.630Z,1246
2019-04-22T01:11:46.885Z,1251
2019-04-22T01:12:49.158Z,1249
2019-04-22T01:13:51.562Z,1257
2019-04-22T01:14:53.698Z,1258
2019-04-22T01:15:56.001Z,1256
2019-04-22T01:16:58.268Z,1257
2019-04-22T01:18:00.521Z,1237
2019-04-22T01:19:02.876Z,1231
2019-04-22T01:20:05.112Z,1233
2019-04-22T01:21:07.330Z,1237
2019-04-22T01:22:09.763Z,1242
2019-04-22T01:23:11.861Z,1238
2019-04-22T01:24:14.189Z,1237
2019-04-22T01:25:16.436Z,1230
2019-04-22T01:26:18.716Z,1202
2019-04-22T01:27:20.957Z,1226
2019-04-22T01:28:23.343Z,1231
2019-04-22T01:29:25.492Z,1230
2019-04-22T01:30:27.795Z,1235
2019-04-22T01:31:30.121Z,1230
2019-04-22T01:32:32.316Z,1235
2019-04-22T01:33:34.668Z,1242
2019-04-22T01:34:36.863Z,1234
2019-04-22T01:35:39.123Z,1247
2019-04-22T01:36:41.402Z,1234
2019-04-22T01:37:43.821Z,1234
2019-04-22T01:38:45.959Z,1245
2019-04-22T01:39:48.331Z,1250
2019-04-22T01:40:50.554Z,1233
2019-04-22T01:41:52.790Z,1240
2019-04-22T01:42:55.166Z,1232
2019-04-22T01:43:57.377Z,1235
2019-04-22T01:44:59.603Z,1238
2019-04-22T01:46:01.883Z,1228
2019-04-22T01:47:04.163Z,1226
2019-04-22T01:48:06.435Z,1235
2019-04-22T01:49:08.677Z,1235
2019-04-22T01:50:10.979Z,1229
2019-04-22T01:51:13.230Z,1217
2019-04-22T01:52:15.499Z,1237
2019-04-22T01:53:17.775Z,1234
2019-04-22T01:54:20.139Z,1219
2019-04-22T01:55:22.403Z,1224
2019-04-22T01:56:24.605Z,1224
2019-04-22T01:57:26.977Z,1237
2019-04-22T01:58:29.156Z,1224
2019-04-22T01:59:31.421Z,1237
2019-04-22T02:00:33.788Z,1237
2019-04-22T02:01:36.015Z,1231
2019-04-22T02:02:38.223Z,1226
2019-04-22T02:03:40.502Z,1234
2019-04-22T02:04:42.788Z,1226
2019-04-22T02:05:45.069Z,1224
2019-04-22T02:06:47.329Z,1228
2019-04-22T02:07:49.733Z,1228
2019-04-22T02:08:51.935Z,1218
2019-04-22T02:09:54.116Z,1221
2019-04-22T02:10:56.423Z,1235
2019-04-22T02:11:58.724Z,1241
2019-04-22T02:13:00.989Z,1233
2019-04-22T02:14:03.406Z,1224
2019-04-22T02:15:05.757Z,1246
2019-04-22T02:16:07.856Z,1253
2019-04-22T02:17:10.145Z,1247
2019-04-22T02:18:12.415Z,1247
2019-04-22T02:19:14.695Z,1251
2019-04-22T02:20:16.943Z,1244
2019-04-22T02:21:19.242Z,1240
2019-04-22T02:22:21.545Z,1243
2019-04-22T02:23:23.903Z,1235
2019-04-22T02:24:26.064Z,1226
2019-04-22T02:25:28.317Z,1240
2019-04-22T02:26:30.570Z,1232
2019-04-22T02:27:32.990Z,1239
2019-04-22T02:28:35.182Z,1239
2019-04-22T02:29:37.427Z,1241
2019-04-22T02:30:39.730Z,1244
2019-04-22T02:31:41.935Z,1228
2019-04-22T02:32:44.304Z,1229
2019-04-22T02:33:48.869Z,1246
2019-04-22T02:34:48.832Z,1227
2019-04-22T02:35:51.049Z,1240
2019-04-22T02:36:53.351Z,1230
2019-04-22T02:37:55.737Z,1218
2019-04-22T02:38:57.882Z,1243
2019-04-22T02:40:00.137Z,1231
2019-04-22T02:41:02.389Z,1230
2019-04-22T02:42:04.679Z,1244
2019-04-22T02:43:06.996Z,1230
2019-04-22T02:44:09.252Z,1229
2019-04-22T02:45:11.567Z,1240
2019-04-22T02:46:13.920Z,1237
2019-04-22T02:47:16.038Z,1240
2019-04-22T02:48:18.399Z,1228
2019-04-22T02:49:20.571Z,1229
2019-04-22T02:50:22.835Z,1233
2019-04-22T02:51:25.112Z,1221
2019-04-22T02:52:27.478Z,1228
2019-04-22T02:53:29.674Z,1224
2019-04-22T02:54:31.929Z,1226
2019-04-22T02:55:34.244Z,1235
2019-04-22T02:56:36.552Z,1222
2019-04-22T02:57:38.771Z,1238
2019-04-22T02:58:41.026Z,1224
2019-04-22T02:59:43.307Z,1235
2019-04-22T03:00:45.589Z,1226
2019-04-22T03:01:49.786Z,1224
2019-04-22T03:02:50.170Z,1229
2019-04-22T03:03:52.435Z,1237
2019-04-22T03:04:54.754Z,1224
2019-04-22T03:05:56.939Z,1235
2019-04-22T03:07:04.143Z,1237
2019-04-22T03:08:01.480Z,1226
2019-04-22T03:09:03.758Z,1234
2019-04-22T03:10:06.026Z,1224
2019-04-22T03:11:08.307Z,1237
2019-04-22T03:12:10.622Z,1237
2019-04-22T03:13:12.849Z,1232
2019-04-22T03:14:15.229Z,1221
2019-04-22T03:15:17.417Z,1226
2019-04-22T03:16:19.748Z,1233
2019-04-22T03:17:22.038Z,1221
2019-04-22T03:18:24.295Z,1218
2019-04-22T03:19:26.586Z,1234
2019-04-22T03:20:28.903Z,1230
2019-04-22T03:21:31.121Z,1226
2019-04-22T03:22:33.495Z,1224
2019-04-22T03:23:35.659Z,1230
2019-04-22T03:24:37.996Z,1228
2019-04-22T03:25:40.349Z,1230
2019-04-22T03:26:42.599Z,1237
2019-04-22T03:27:44.753Z,1229
2019-04-22T03:28:47.020Z,1224
2019-04-22T03:29:49.358Z,1235
2019-04-22T03:30:51.711Z,1217
2019-04-22T03:31:54.029Z,1224
2019-04-22T03:32:56.103Z,1217
2019-04-22T03:33:58.373Z,1218
2019-04-22T03:35:00.785Z,1212
2019-04-22T03:36:02.921Z,1222
2019-04-22T03:37:05.258Z,1210
2019-04-22T03:38:07.610Z,1221
2019-04-22T03:39:09.819Z,1218
2019-04-22T03:40:12.017Z,1216
2019-04-22T03:41:14.320Z,1196
2019-04-22T03:42:16.766Z,1203
2019-04-22T03:43:18.974Z,1209
2019-04-22T03:44:21.307Z,1205
2019-04-22T03:45:23.545Z,1202
2019-04-22T03:46:25.815Z,1210
2019-04-22T03:47:28.065Z,1208
2019-04-22T03:48:30.346Z,1215
2019-04-22T03:49:32.615Z,1217
2019-04-22T03:50:34.884Z,1212
2019-04-22T03:51:37.172Z,1216
2019-04-22T03:52:39.433Z,1208
2019-04-22T03:53:41.846Z,1196
2019-04-22T03:54:44.007Z,1214
2019-04-22T03:55:46.249Z,1208
2019-04-22T03:56:48.726Z,1205
2019-04-22T03:57:51.025Z,1201
2019-04-22T03:58:53.158Z,1194
2019-04-22T03:59:55.417Z,1191
2019-04-22T04:00:57.711Z,1195
2019-04-22T04:01:59.990Z,1203
2019-04-22T04:03:02.322Z,1198
2019-04-22T04:04:04.540Z,1191
2019-04-22T04:05:07.005Z,1195
2019-04-22T04:06:09.136Z,1197
2019-04-22T04:07:11.400Z,1189
2019-04-22T04:08:13.620Z,1200
2019-04-22T04:09:15.873Z,1185
2019-04-22T04:10:18.140Z,1205
2019-04-22T04:11:20.424Z,1207
2019-04-22T04:12:22.700Z,1203
2019-04-22T04:13:24.982Z,1197
2019-04-22T04:14:27.222Z,1195
2019-04-22T04:15:29.506Z,1187
2019-04-22T04:16:31.782Z,1192
2019-04-22T04:17:34.185Z,1194
2019-04-22T04:18:36.414Z,1201
2019-04-22T04:19:38.604Z,1196
2019-04-22T04:20:40.885Z,1190
2019-04-22T04:21:43.306Z,1196
2019-04-22T04:22:45.457Z,1201
2019-04-22T04:23:47.685Z,1187
2019-04-22T04:24:49.959Z,1190
2019-04-22T04:25:57.305Z,1188
2019-04-22T04:26:54.565Z,1193
2019-04-22T04:27:56.779Z,1191
2019-04-22T04:28:59.045Z,1198
2019-04-22T04:30:01.327Z,1201
2019-04-22T04:31:03.607Z,1208
2019-04-22T04:32:05.994Z,1201
2019-04-22T04:33:08.204Z,1180
2019-04-22T04:34:10.441Z,1189
2019-04-22T04:35:12.703Z,1193
2019-04-22T04:36:14.993Z,1193
2019-04-22T04:37:17.246Z,1189
2019-04-22T04:38:19.580Z,1178
2019-04-22T04:39:21.771Z,1181
2019-04-22T04:40:24.033Z,1173
2019-04-22T04:41:26.325Z,1177
2019-04-22T04:42:28.700Z,1189
2019-04-22T04:43:30.883Z,1178
2019-04-22T04:44:33.125Z,1187
2019-04-22T04:45:35.613Z,1162
2019-04-22T04:46:37.685Z,1173
2019-04-22T04:47:40.028Z,1176
2019-04-22T04:48:42.302Z,1176
2019-04-22T04:49:44.671Z,1162
2019-04-22T04:50:46.764Z,1171
2019-04-22T04:51:49.169Z,1175
2019-04-22T04:52:51.396Z,1174
2019-04-22T04:53:53.610Z,1161
2019-04-22T04:54:55.896Z,1182
2019-04-22T04:55:58.215Z,1168
2019-04-22T04:57:00.410Z,1173
2019-04-22T04:58:02.699Z,1172
2019-04-22T04:59:05.039Z,1169
2019-04-22T05:00:07.363Z,1156
2019-04-22T05:01:09.619Z,1162
2019-04-22T05:02:11.906Z,1168
2019-04-22T05:03:14.132Z,1180
2019-04-22T05:04:16.411Z,1183
2019-04-22T05:05:18.688Z,1174
2019-04-22T05:06:21.002Z,1167
2019-04-22T05:07:23.204Z,1167
2019-04-22T05:08:25.555Z,1174
2019-04-22T05:09:27.759Z,1168
2019-04-22T05:10:30.026Z,1166
2019-04-22T05:11:33.906Z,1169
2019-04-22T05:12:34.573Z,1176
2019-04-22T05:13:36.892Z,1168
2019-04-22T05:14:39.118Z,1171
2019-04-22T05:15:41.414Z,1173
2019-04-22T05:16:43.678Z,1178
2019-04-22T05:18:48.215Z,1180
2019-04-22T05:19:50.537Z,1170
2019-04-22T05:20:52.786Z,1167
2019-04-22T05:21:55.045Z,1173
2019-04-22T05:22:57.538Z,1168
2019-04-22T05:23:59.587Z,1162
2019-04-22T05:25:01.856Z,1172
2019-04-22T05:26:04.167Z,1162
2019-04-22T05:27:06.450Z,1162
2019-04-22T05:28:08.722Z,1166
2019-04-22T05:29:10.968Z,1165
2019-04-22T05:30:13.230Z,1167
2019-04-22T05:31:15.520Z,1159
2019-04-22T05:32:17.794Z,1171
2019-04-22T05:33:20.026Z,1177
2019-04-22T05:34:22.297Z,1171
2019-04-22T05:35:24.646Z,1176
2019-04-22T05:36:26.847Z,1160
2019-04-22T05:37:29.125Z,1168
2019-04-22T05:38:31.407Z,1163
2019-04-22T05:39:33.668Z,1169
2019-04-22T05:40:35.919Z,1171
2019-04-22T05:41:38.190Z,1187
2019-04-22T05:42:40.563Z,1230
2019-04-22T05:43:42.765Z,1230
2019-04-22T05:44:45.037Z,1213
2019-04-22T05:45:47.311Z,1226
2019-04-22T05:46:49.576Z,1215
2019-04-22T05:47:51.878Z,1192
2019-04-22T05:48:54.183Z,1202
2019-04-22T05:49:56.455Z,1189
2019-04-22T05:50:58.667Z,1203
2019-04-22T05:52:00.923Z,1188
2019-04-22T05:53:03.222Z,1173
2019-04-22T05:54:05.489Z,1196
2019-04-22T05:55:07.797Z,1185
2019-04-22T05:56:10.600Z,1184
2019-04-22T05:57:12.293Z,1198
2019-04-22T05:58:14.667Z,1193
2019-04-22T05:59:16.931Z,1194
2019-04-22T06:00:19.200Z,1199
2019-04-22T06:01:21.547Z,1183
2019-04-22T06:02:23.784Z,1191
2019-04-22T06:03:26.021Z,1198
2019-04-22T06:04:28.261Z,1196
2019-04-22T06:05:30.548Z,1192
2019-04-22T06:06:32.819Z,1185
2019-04-22T06:07:35.098Z,1198
2019-04-22T06:08:37.352Z,1185
2019-04-22T06:09:39.659Z,1201
2019-04-22T06:10:41.938Z,1210
2019-04-22T06:11:44.171Z,1219
2019-04-22T06:12:46.445Z,1218
2019-04-22T06:13:49.602Z,1203
2019-04-22T06:14:51.023Z,1203
2019-04-22T06:15:53.300Z,1200
2019-04-22T06:16:55.536Z,1210
2019-04-22T06:17:57.898Z,1201
2019-04-22T06:19:00.219Z,1201
2019-04-22T06:20:02.382Z,1198
2019-04-22T06:21:04.665Z,1202
2019-04-22T06:22:06.915Z,1193
2019-04-22T06:23:09.185Z,1206
2019-04-22T06:24:11.476Z,1194
2019-04-22T06:25:13.739Z,1196
2019-04-22T06:26:16.109Z,1208
2019-04-22T06:27:18.309Z,1205
2019-04-22T06:28:20.560Z,1187
2019-04-22T06:29:22.815Z,1203
2019-04-22T06:30:25.090Z,1181
2019-04-22T06:31:27.449Z,1194
2019-04-22T06:32:29.619Z,1205
2019-04-22T06:33:31.889Z,1204
2019-04-22T06:34:34.214Z,1193
2019-04-22T06:35:36.581Z,1200
2019-04-22T06:36:38.749Z,1198
2019-04-22T06:37:41.053Z,1209
2019-04-22T06:38:43.287Z,1196
2019-04-22T06:39:48.612Z,1208
2019-04-22T06:40:47.806Z,1203
2019-04-22T06:41:50.153Z,1193
2019-04-22T06:42:52.346Z,1208
2019-04-22T06:43:54.651Z,1198
2019-04-22T06:44:56.913Z,1200
2019-04-22T06:45:59.180Z,1203
2019-04-22T06:47:01.461Z,1204
2019-04-22T06:48:03.815Z,1202
2019-04-22T06:49:06.013Z,1203
2019-04-22T06:50:08.274Z,1206
2019-04-22T06:51:10.537Z,1208
2019-04-22T06:52:12.790Z,1192
2019-04-22T06:53:15.136Z,1193
2019-04-22T06:54:17.346Z,1210
2019-04-22T06:55:19.614Z,1181
2019-04-22T06:56:25.229Z,1179
2019-04-22T06:57:24.304Z,1192
2019-04-22T06:58:26.552Z,1193
2019-04-22T06:59:28.842Z,1185
2019-04-22T07:00:31.126Z,1189
2019-04-22T07:01:33.471Z,1202
2019-04-22T07:02:35.603Z,1193
2019-04-22T07:03:37.884Z,1187
2019-04-22T07:04:40.190Z,1190
2019-04-22T07:05:42.429Z,1195
2019-04-22T07:06:44.694Z,1192
2019-04-22T07:07:46.967Z,1190
2019-04-22T07:08:49.245Z,1179
2019-04-22T07:09:51.585Z,1188
2019-04-22T07:10:53.842Z,1181
2019-04-22T07:11:56.092Z,1192
2019-04-22T07:12:58.436Z,1176
2019-04-22T07:14:05.305Z,1189
2019-04-22T07:15:02.924Z,1183
2019-04-22T07:16:05.188Z,1185
2019-04-22T07:17:07.432Z,1196
2019-04-22T07:18:09.757Z,1201
2019-04-22T07:19:12.050Z,1186
2019-04-22T07:20:14.266Z,1198
2019-04-22T07:21:16.577Z,1189
2019-04-22T07:22:18.816Z,1185
2019-04-22T07:23:21.094Z,1176
2019-04-22T07:24:23.357Z,1189
2019-04-22T07:25:26.570Z,1187
2019-04-22T07:26:27.940Z,1185
2019-04-22T07:27:30.151Z,1187
2019-04-22T07:28:32.473Z,1185
2019-04-22T07:29:34.823Z,1185
2019-04-22T07:30:36.954Z,1176
2019-04-22T07:31:39.255Z,1190
2019-04-22T07:32:41.509Z,1201
2019-04-22T07:33:43.775Z,1193
2019-04-22T07:34:46.048Z,1195
2019-04-22T07:35:48.324Z,1194
2019-04-22T07:36:50.608Z,1187
2019-04-22T07:37:52.855Z,1187
2019-04-22T07:38:55.145Z,1198
2019-04-22T07:39:57.398Z,1187
2019-04-22T07:41:04.225Z,1203
2019-04-22T07:42:01.953Z,1194
2019-04-22T07:43:04.279Z,1189
2019-04-22T07:44:06.584Z,1189
2019-04-22T07:45:08.776Z,1198
2019-04-22T07:46:11.068Z,1178
2019-04-22T07:47:13.322Z,1199
2019-04-22T07:48:15.654Z,1278
2019-04-22T07:49:17.964Z,1265
2019-04-22T07:50:20.161Z,1219
2019-04-22T07:51:22.415Z,1221
2019-04-22T07:52:24.694Z,1194
2019-04-22T07:53:27.024Z,1194
2019-04-22T07:54:29.220Z,1221
2019-04-22T07:55:31.525Z,1212
2019-04-22T07:56:33.840Z,1207
2019-04-22T07:57:36.055Z,1243
2019-04-22T07:58:38.349Z,1267
2019-04-22T07:59:40.704Z,1248
2019-04-22T08:00:42.948Z,1245
2019-04-22T08:01:45.262Z,1224
2019-04-22T08:02:47.496Z,1218
2019-04-22T08:03:49.768Z,1220
2019-04-22T08:04:52.077Z,1213
2019-04-22T08:05:54.316Z,1233
2019-04-22T08:06:56.583Z,1228
2019-04-22T08:07:58.856Z,1210
2019-04-22T08:09:01.152Z,1214
2019-04-22T08:10:03.435Z,1218
2019-04-22T08:11:05.658Z,1221
2019-04-22T08:12:08.050Z,1222
2019-04-22T08:13:10.221Z,1225
2019-04-22T08:14:12.626Z,1237
2019-04-22T08:15:14.742Z,1228
2019-04-22T08:16:17.309Z,1226
2019-04-22T08:17:19.420Z,1208
2019-04-22T08:18:21.629Z,1226
2019-04-22T08:19:23.876Z,1221
2019-04-22T08:20:26.140Z,1215
2019-04-22T08:21:28.409Z,1210
2019-04-22T08:22:30.744Z,1212
2019-04-22T08:23:32.928Z,1217
2019-04-22T08:24:35.293Z,1221
2019-04-22T08:25:37.486Z,1231
2019-04-22T08:26:39.743Z,1219
2019-04-22T08:27:42.038Z,1228
2019-04-22T08:28:44.339Z,1223
2019-04-22T08:29:46.638Z,1228
2019-04-22T08:30:48.875Z,1228
2019-04-22T08:31:52.405Z,1222
2019-04-22T08:32:53.403Z,1214
2019-04-22T08:33:55.691Z,1216
2019-04-22T08:34:57.947Z,1210
2019-04-22T08:36:00.210Z,1212
2019-04-22T08:37:02.497Z,1224
2019-04-22T08:38:04.870Z,1226
2019-04-22T08:39:07.728Z,1206
2019-04-22T08:40:09.330Z,1203
2019-04-22T08:41:11.592Z,1219
2019-04-22T08:42:13.845Z,1251
2019-04-22T08:43:16.186Z,1235
2019-04-22T08:44:18.396Z,1235
2019-04-22T08:45:20.734Z,1221
2019-04-22T08:46:22.965Z,1229
2019-04-22T08:47:25.300Z,1228
2019-04-22T08:48:27.497Z,1230
2019-04-22T08:49:29.817Z,1213
2019-04-22T08:50:32.175Z,1245
2019-04-22T08:51:34.398Z,1235
2019-04-22T08:52:36.886Z,1230
2019-04-22T08:53:38.919Z,1223
2019-04-22T08:54:41.198Z,1229
2019-04-22T08:56:45.678Z,1228
2019-04-22T08:57:47.956Z,1250
2019-04-22T08:58:50.355Z,1249
2019-04-22T08:59:52.595Z,1228
2019-04-22T09:00:54.851Z,1216
2019-04-22T09:01:57.140Z,1229
2019-04-22T09:02:59.390Z,1213
2019-04-22T09:04:01.692Z,1224
2019-04-22T09:05:03.994Z,1224
2019-04-22T09:06:06.212Z,1235
2019-04-22T09:07:08.573Z,1219
2019-04-22T09:08:10.748Z,1230
2019-04-22T09:09:13.020Z,1232
2019-04-22T09:10:15.357Z,1219
2019-04-22T09:11:17.581Z,1235
2019-04-22T09:12:19.836Z,1224
2019-04-22T09:13:22.140Z,1228
2019-04-22T09:14:24.629Z,1265
2019-04-22T09:15:26.731Z,1261
2019-04-22T09:16:29.009Z,1257
2019-04-22T09:17:31.213Z,1228
2019-04-22T09:18:33.582Z,1225
2019-04-22T09:19:35.742Z,1221
2019-04-22T09:20:38.137Z,1221
2019-04-22T09:21:40.296Z,1228
2019-04-22T09:22:42.650Z,1228
2019-04-22T09:23:44.841Z,1225
2019-04-22T09:24:47.195Z,1208
2019-04-22T09:25:49.390Z,1219
2019-04-22T09:26:51.723Z,1218
2019-04-22T09:27:53.940Z,1218
2019-04-22T09:28:56.207Z,1219
2019-04-22T09:29:58.483Z,1230
2019-04-22T09:31:00.806Z,1219
2019-04-22T09:32:03.042Z,1211
2019-04-22T09:33:05.492Z,1215
2019-04-22T09:34:07.638Z,1220
2019-04-22T09:35:09.918Z,1236
2019-04-22T09:36:12.208Z,1223
2019-04-22T09:37:14.696Z,1279
2019-04-22T09:38:16.756Z,1284
2019-04-22T09:39:19.025Z,1291
2019-04-22T09:40:21.398Z,1273
2019-04-22T09:41:23.546Z,1260
2019-04-22T09:42:25.837Z,1261
2019-04-22T09:43:28.141Z,1244
2019-04-22T09:44:30.553Z,1240
2019-04-22T09:45:32.646Z,1251
2019-04-22T09:46:34.953Z,1233
2019-04-22T09:47:37.190Z,1232
2019-04-22T09:48:39.443Z,1250
2019-04-22T09:49:46.046Z,1251
2019-04-22T09:50:43.998Z,1260
2019-04-22T09:51:46.279Z,1253
2019-04-22T09:52:48.557Z,1245
2019-04-22T09:53:50.833Z,1243
2019-04-22T09:54:53.106Z,1257
2019-04-22T09:55:55.448Z,1249
2019-04-22T09:56:57.663Z,1260
2019-04-22T09:57:59.917Z,1249
2019-04-22T09:59:02.210Z,1249
2019-04-22T10:00:04.465Z,1251
2019-04-22T10:01:06.763Z,1261
2019-04-22T10:02:09.095Z,1279
2019-04-22T10:03:11.395Z,1252
2019-04-22T10:04:13.558Z,1246
2019-04-22T10:05:15.816Z,1265
2019-04-22T10:06:18.259Z,1272
2019-04-22T10:07:20.488Z,1264
2019-04-22T10:08:22.662Z,1265
2019-04-22T10:09:24.931Z,1291
2019-04-22T10:10:27.251Z,1241
2019-04-22T10:11:29.452Z,1244
2019-04-22T10:12:31.722Z,1260
2019-04-22T10:13:34.089Z,1256
2019-04-22T10:14:36.348Z,1268
2019-04-22T10:15:38.598Z,1268
2019-04-22T10:16:40.843Z,1265
2019-04-22T10:17:43.129Z,1259
2019-04-22T10:18:45.390Z,1265
2019-04-22T10:19:47.767Z,1246
2019-04-22T10:20:49.946Z,1272
2019-04-22T10:21:52.201Z,1251
2019-04-22T10:22:54.481Z,1258
2019-04-22T10:23:56.728Z,1254
2019-04-22T10:24:59.072Z,1250
2019-04-22T10:26:01.357Z,1234
2019-04-22T10:27:03.560Z,1244
2019-04-22T10:28:05.848Z,1239
2019-04-22T10:29:08.094Z,1231
2019-04-22T10:30:10.412Z,1252
2019-04-22T10:31:12.741Z,1225
2019-04-22T10:32:14.927Z,1230
2019-04-22T10:33:17.204Z,1237
2019-04-22T10:34:19.496Z,1242
2019-04-22T10:35:21.854Z,1237
2019-04-22T10:36:24.203Z,1243
2019-04-22T10:37:26.386Z,1231
2019-04-22T10:38:28.654Z,1237
2019-04-22T10:39:30.925Z,1257
2019-04-22T10:40:33.205Z,1253
2019-04-22T10:41:35.566Z,1234
2019-04-22T10:42:37.793Z,1243
2019-04-22T10:43:40.071Z,1240
2019-04-22T10:44:42.292Z,1250
2019-04-22T10:45:44.576Z,1228
2019-04-22T10:46:46.863Z,1247
2019-04-22T10:47:49.132Z,1257
2019-04-22T10:48:51.440Z,1279
2019-04-22T10:49:53.697Z,1255
2019-04-22T10:50:55.938Z,1239
2019-04-22T10:51:58.315Z,1251
2019-04-22T10:53:04.701Z,1271
2019-04-22T10:54:02.766Z,1265
2019-04-22T10:55:05.039Z,1266
2019-04-22T10:56:07.432Z,1258
2019-04-22T10:57:09.734Z,1253
2019-04-22T10:58:12.064Z,1233
2019-04-22T10:59:14.199Z,1233
2019-04-22T11:00:16.604Z,1242
2019-04-22T11:01:19.315Z,1235
2019-04-22T11:02:21.099Z,1250
2019-04-22T11:03:23.404Z,1247
2019-04-22T11:04:25.648Z,1253
2019-04-22T11:05:27.919Z,1242
2019-04-22T11:06:30.181Z,1237
2019-04-22T11:07:32.482Z,1233
2019-04-22T11:08:34.718Z,1243
2019-04-22T11:09:37.244Z,1248
2019-04-22T11:10:39.303Z,1237
2019-04-22T11:11:41.627Z,1259
2019-04-22T11:12:43.836Z,1241
2019-04-22T11:13:46.085Z,1233
2019-04-22T11:14:48.474Z,1242
2019-04-22T11:15:50.708Z,1242
2019-04-22T11:16:52.925Z,1223
2019-04-22T11:17:55.173Z,1256
2019-04-22T11:18:57.697Z,1235
2019-04-22T11:19:59.726Z,1231
2019-04-22T11:21:02.088Z,1238
2019-04-22T11:22:04.420Z,1245
2019-04-22T11:23:06.589Z,1251
2019-04-22T11:24:08.839Z,1255
2019-04-22T11:25:11.116Z,1244
2019-04-22T11:26:13.562Z,1228
2019-04-22T11:27:15.642Z,1237
2019-04-22T11:28:17.947Z,1233
2019-04-22T11:29:20.255Z,1243
2019-04-22T11:30:22.495Z,1235
2019-04-22T11:31:24.822Z,1251
2019-04-22T11:32:27.018Z,1244
2019-04-22T11:33:29.635Z,1241
2019-04-22T11:34:31.573Z,1238
2019-04-22T11:35:33.851Z,1267
2019-04-22T11:36:36.142Z,1247
2019-04-22T11:37:38.576Z,1247
2019-04-22T11:38:40.849Z,1226
2019-04-22T11:39:43.028Z,1249
2019-04-22T11:40:48.810Z,1242
2019-04-22T11:41:47.566Z,1256
2019-04-22T11:42:49.876Z,1278
2019-04-22T11:43:52.145Z,1244
2019-04-22T11:44:54.459Z,1283
2019-04-22T11:45:56.721Z,1308
2019-04-22T11:46:59.030Z,1321
2019-04-22T11:48:01.230Z,1318
2019-04-22T11:49:03.529Z,1312
2019-04-22T11:50:05.773Z,1299
2019-04-22T11:51:08.035Z,1272
2019-04-22T11:52:10.306Z,1279
2019-04-22T11:53:13.696Z,1288
2019-04-22T11:54:15.102Z,1251
2019-04-22T11:55:17.208Z,1303
2019-04-22T11:56:19.573Z,1268
2019-04-22T11:57:21.685Z,1265
2019-04-22T11:58:23.968Z,1272
2019-04-22T11:59:26.242Z,1281
2019-04-22T12:00:28.606Z,1264
2019-04-22T12:01:30.794Z,1291
2019-04-22T12:02:33.206Z,1272
2019-04-22T12:03:35.462Z,1288
2019-04-22T12:04:37.707Z,1272
2019-04-22T12:05:39.904Z,1265
2019-04-22T12:06:42.146Z,1275
2019-04-22T12:07:44.410Z,1274
2019-04-22T12:08:46.707Z,1262
2019-04-22T12:09:48.955Z,1258
2019-04-22T12:10:51.318Z,1289
2019-04-22T12:11:53.509Z,1285
2019-04-22T12:13:00.610Z,1281
2019-04-22T12:13:58.080Z,1267
2019-04-22T12:15:00.336Z,1273
2019-04-22T12:16:02.644Z,1276
2019-04-22T12:17:04.894Z,1282
2019-04-22T12:18:07.172Z,1280
2019-04-22T12:19:09.644Z,1285
2019-04-22T12:20:11.772Z,1280
2019-04-22T12:21:13.992Z,1291
2019-04-22T12:22:16.259Z,1276
2019-04-22T12:23:18.578Z,1286
2019-04-22T12:24:20.834Z,1286
2019-04-22T12:25:23.120Z,1273
2019-04-22T12:27:27.691Z,1287
2019-04-22T12:28:29.891Z,1274
2019-04-22T12:29:32.163Z,1276
2019-04-22T12:30:34.437Z,1286
2019-04-22T12:31:36.756Z,1277
2019-04-22T12:32:39.048Z,1288
2019-04-22T12:33:41.253Z,1285
2019-04-22T12:34:43.523Z,1283
2019-04-22T12:35:45.834Z,1278
2019-04-22T12:36:48.070Z,1273
2019-04-22T12:37:50.419Z,1269
2019-04-22T12:38:52.717Z,1274
2019-04-22T12:39:54.996Z,1287
2019-04-22T12:40:57.241Z,1279
2019-04-22T12:41:59.527Z,1283
2019-04-22T12:43:02.222Z,1301
2019-04-22T12:44:04.078Z,1308
2019-04-22T12:45:06.386Z,1295
2019-04-22T12:46:08.627Z,1301
2019-04-22T12:47:10.887Z,1299
2019-04-22T12:48:13.200Z,1303
2019-04-22T12:49:15.453Z,1304
2019-04-22T12:50:17.721Z,1317
2019-04-22T12:51:20.078Z,1280
2019-04-22T12:52:22.273Z,1293
2019-04-22T12:53:24.538Z,1290
2019-04-22T12:54:26.802Z,1333
2019-04-22T12:55:29.157Z,1314
2019-04-22T12:56:31.435Z,1295
2019-04-22T12:57:33.706Z,1291
2019-04-22T12:58:35.927Z,1303
2019-04-22T12:59:38.237Z,1304
2019-04-22T13:00:40.833Z,1283
2019-04-22T13:01:42.768Z,1297
2019-04-22T13:02:44.999Z,1292
2019-04-22T13:03:47.277Z,1324
2019-04-22T13:04:49.616Z,1308
2019-04-22T13:05:51.819Z,1288
2019-04-22T13:06:54.173Z,1308
2019-04-22T13:07:56.418Z,1311
2019-04-22T13:08:58.646Z,1322
2019-04-22T13:10:00.951Z,1301
2019-04-22T13:11:03.259Z,1293
2019-04-22T13:12:05.777Z,1309
2019-04-22T13:13:07.755Z,1313
2019-04-22T13:14:10.091Z,1324
2019-04-22T13:15:12.293Z,1290
2019-04-22T13:16:14.556Z,1295
2019-04-22T13:17:16.830Z,1318
2019-04-22T13:18:19.094Z,1316
2019-04-22T13:19:21.469Z,1300
2019-04-22T13:20:23.657Z,1292
2019-04-22T13:21:25.955Z,1297
2019-04-22T13:22:28.205Z,1325
2019-04-22T13:23:30.477Z,1328
2019-04-22T13:24:34.107Z,1304
2019-04-22T13:25:35.040Z,1341
2019-04-22T13:26:37.319Z,1342
2019-04-22T13:27:39.586Z,1354
2019-04-22T13:28:41.835Z,1324
2019-04-22T13:29:44.125Z,1328
2019-04-22T13:30:46.401Z,1338
2019-04-22T13:31:48.690Z,1321
2019-04-22T13:32:50.943Z,1322
2019-04-22T13:33:53.195Z,1321
2019-04-22T13:34:55.505Z,1348
2019-04-22T13:35:57.770Z,1326
2019-04-22T13:37:00.038Z,1337
2019-04-22T13:38:02.311Z,1320
2019-04-22T13:39:04.621Z,1329
2019-04-22T13:40:06.904Z,1351
2019-04-22T13:41:09.137Z,1326
2019-04-22T13:42:11.466Z,1354
2019-04-22T13:43:13.715Z,1310
2019-04-22T13:44:16.042Z,1308
2019-04-22T13:45:18.296Z,1309
2019-04-22T13:46:20.613Z,1345
2019-04-22T13:47:22.926Z,1356
2019-04-22T13:48:25.159Z,1336
2019-04-22T13:49:32.995Z,1318
2019-04-22T13:50:29.807Z,1325
2019-04-22T13:51:31.975Z,1303